Time;durP1;ratioP1;P1;durP2;ratioP2;P2;SDS_P1;SDS_P2;PMS_P1;PMS_P2;Temp;Humidity;BMP_temperature;BMP_pressure;BME280_temperature;BME280_humidity;BME280_pressure;Samples;Min_cycle;Max_cycle;Signal;HPM_P1;HPM_P2
2022/06/15 00:01:33;;;;;;;5.90;3.20;;;18.10;62.70;;;;;;5110431;28;20472;-72
2022/06/15 00:04:03;;;;;;;6.70;3.03;;;18.10;62.70;;;;;;5109287;28;20448;-71
2022/06/15 00:06:38;;;;;;;4.93;2.40;;;18.00;62.80;;;;;;5109813;28;20444;-72
2022/06/15 00:09:07;;;;;;;6.70;3.10;;;18.00;62.80;;;;;;5106617;28;20451;-73
2022/06/15 00:11:37;;;;;;;5.20;2.47;;;18.00;62.90;;;;;;5110448;28;20508;-72
2022/06/15 00:14:12;;;;;;;6.27;2.97;;;18.00;62.90;;;;;;5110856;28;20459;-73
2022/06/15 00:16:41;;;;;;;6.10;2.77;;;18.00;63.00;;;;;;5102147;28;20503;-72
2022/06/15 00:19:09;;;;;;;6.53;3.23;;;17.90;62.90;;;;;;5111581;28;20505;-72
2022/06/15 00:21:38;;;;;;;5.70;3.17;;;17.90;62.90;;;;;;5108043;28;20472;-72
2022/06/15 00:24:07;;;;;;;5.80;2.90;;;17.80;63.10;;;;;;5105815;28;20475;-70
2022/06/15 00:26:35;;;;;;;5.13;2.80;;;17.80;63.10;;;;;;5110724;28;20536;-71
2022/06/15 00:29:03;;;;;;;5.60;2.70;;;17.70;63.10;;;;;;5093121;28;20836;-71
2022/06/15 00:31:31;;;;;;;5.80;3.00;;;17.70;63.10;;;;;;5108507;28;20511;-72
2022/06/15 00:33:59;;;;;;;6.10;3.17;;;17.60;63.20;;;;;;5094519;28;20453;-72
2022/06/15 00:36:27;;;;;;;6.63;2.70;;;17.60;63.20;;;;;;5107960;28;20471;-72
2022/06/15 00:38:59;;;;;;;6.60;2.90;;;17.50;63.30;;;;;;5109253;28;20440;-72
2022/06/15 00:41:31;;;;;;;5.50;2.60;;;17.50;63.50;;;;;;5110006;28;20468;-71
2022/06/15 00:44:02;;;;;;;8.90;3.33;;;17.50;63.60;;;;;;5099098;28;20473;-71
2022/06/15 00:46:34;;;;;;;5.20;2.83;;;17.50;63.50;;;;;;5103069;28;20469;-71
2022/06/15 00:49:08;;;;;;;5.70;2.73;;;17.40;63.60;;;;;;5110091;28;20471;-71
2022/06/15 00:51:38;;;;;;;5.67;2.90;;;17.40;63.60;;;;;;5107963;28;20484;-71
2022/06/15 00:54:08;;;;;;;6.23;2.90;;;17.40;63.60;;;;;;5101374;28;20449;-71
2022/06/15 00:56:38;;;;;;;5.90;2.70;;;17.40;63.70;;;;;;5108631;28;20461;-71
2022/06/15 00:59:12;;;;;;;6.00;2.70;;;17.40;63.70;;;;;;5109443;28;20813;-71
2022/06/15 01:01:41;;;;;;;6.00;2.83;;;17.40;63.60;;;;;;5107256;28;20486;-72
2022/06/15 01:04:09;;;;;;;6.50;3.17;;;17.40;63.50;;;;;;5109273;28;20467;-71
2022/06/15 01:06:46;;;;;;;6.17;3.47;;;17.30;63.50;;;;;;5109932;28;20533;-71
2022/06/15 01:09:21;;;;;;;6.03;2.70;;;17.20;63.60;;;;;;5104372;28;20452;-71
2022/06/15 01:12:02;;;;;;;5.40;2.77;;;17.20;63.80;;;;;;5108038;28;20559;-71
2022/06/15 01:15:03;;;;;;;6.10;2.87;;;17.10;63.80;;;;;;5108643;28;20445;-70
2022/06/15 01:17:49;;;;;;;5.97;2.63;;;17.10;63.90;;;;;;5088002;28;20478;-71
2022/06/15 01:20:28;;;;;;;5.90;2.70;;;17.10;63.90;;;;;;5105829;28;20533;-72
2022/06/15 01:23:26;;;;;;;5.60;2.50;;;17.00;63.90;;;;;;5107486;28;20541;-72
2022/06/15 01:26:13;;;;;;;7.00;3.07;;;16.90;63.90;;;;;;5091255;28;20475;-72
2022/06/15 01:28:45;;;;;;;5.23;2.53;;;16.90;63.90;;;;;;5107926;28;20468;-72
2022/06/15 01:31:23;;;;;;;5.67;2.60;;;16.80;64.00;;;;;;5089402;28;20468;-73
2022/06/15 01:34:01;;;;;;;5.37;2.83;;;16.70;63.90;;;;;;5107589;28;20467;-71
2022/06/15 01:36:52;;;;;;;8.70;3.23;;;16.70;64.00;;;;;;5108061;28;20456;-72
2022/06/15 01:39:26;;;;;;;5.67;2.80;;;16.60;64.00;;;;;;5099873;28;20452;-71
2022/06/15 01:42:00;;;;;;;6.83;3.17;;;16.50;64.20;;;;;;5101549;28;20483;-73
2022/06/15 01:44:32;;;;;;;5.23;2.77;;;16.50;64.30;;;;;;5108689;28;20447;-72
2022/06/15 01:47:05;;;;;;;5.33;2.87;;;16.60;64.40;;;;;;5104556;28;20834;-72
2022/06/15 01:49:41;;;;;;;5.30;2.60;;;16.60;64.40;;;;;;5089821;28;20452;-72
2022/06/15 01:52:13;;;;;;;5.60;3.00;;;16.60;64.30;;;;;;5108762;28;20449;-72
2022/06/15 01:54:47;;;;;;;6.93;3.20;;;16.50;64.30;;;;;;5089440;28;20507;-71
2022/06/15 01:57:18;;;;;;;5.93;2.90;;;16.50;64.20;;;;;;5100810;28;20961;-72
2022/06/15 01:59:50;;;;;;;4.83;3.00;;;16.40;64.20;;;;;;5082553;28;20457;-72
2022/06/15 02:02:26;;;;;;;6.70;2.90;;;16.30;64.20;;;;;;5102600;28;20536;-72
2022/06/15 02:05:06;;;;;;;7.03;3.30;;;16.20;64.40;;;;;;5107171;28;20464;-72
2022/06/15 02:07:45;;;;;;;6.43;2.80;;;16.10;64.40;;;;;;5088160;28;20925;-71
2022/06/15 02:10:22;;;;;;;7.60;2.93;;;16.10;64.60;;;;;;5087369;28;21024;-71
2022/06/15 02:12:57;;;;;;;5.33;2.90;;;16.00;64.60;;;;;;5082565;28;20518;-71
2022/06/15 02:15:28;;;;;;;5.40;2.77;;;16.00;64.70;;;;;;5100590;28;20471;-71
2022/06/15 02:18:05;;;;;;;6.30;3.53;;;16.00;64.80;;;;;;5086251;28;20981;-71
2022/06/15 02:20:38;;;;;;;6.73;3.20;;;16.00;64.90;;;;;;5086358;28;20499;-70
2022/06/15 02:23:11;;;;;;;9.00;3.43;;;16.10;65.00;;;;;;5105114;28;20452;-72
2022/06/15 02:25:44;;;;;;;7.27;2.80;;;16.10;64.90;;;;;;5090009;28;20529;-71
2022/06/15 02:28:14;;;;;;;5.53;2.63;;;16.10;64.80;;;;;;5101073;28;20468;-72
2022/06/15 02:30:45;;;;;;;5.40;3.10;;;16.00;64.80;;;;;;5098787;28;20488;-70
2022/06/15 02:33:25;;;;;;;5.43;2.60;;;16.00;64.80;;;;;;5106857;28;20444;-72
2022/06/15 02:35:54;;;;;;;5.50;2.77;;;15.90;64.90;;;;;;5104755;28;20836;-72
2022/06/15 02:38:23;;;;;;;9.60;3.10;;;15.90;64.80;;;;;;5083609;28;20568;-72
2022/06/15 02:40:51;;;;;;;6.43;2.70;;;15.90;64.80;;;;;;5105541;28;20485;-71
2022/06/15 02:43:24;;;;;;;6.43;3.03;;;15.80;64.80;;;;;;5091155;28;20466;-72
2022/06/15 02:45:55;;;;;;;5.97;3.00;;;15.80;64.90;;;;;;5084061;28;20465;-71
2022/06/15 02:48:30;;;;;;;6.70;2.90;;;15.80;65.10;;;;;;5103318;28;20451;-70
2022/06/15 02:51:04;;;;;;;6.70;3.27;;;15.80;65.20;;;;;;5096154;28;20483;-70
2022/06/15 02:53:37;;;;;;;10.53;2.93;;;15.70;65.10;;;;;;5106766;28;20481;-70
2022/06/15 02:56:08;;;;;;;5.43;2.57;;;15.70;65.10;;;;;;5090090;28;20491;-70
2022/06/15 02:58:40;;;;;;;5.40;2.93;;;15.70;65.30;;;;;;5089148;28;20501;-71
2022/06/15 03:01:08;;;;;;;5.27;2.80;;;15.70;65.30;;;;;;5102108;28;20560;-71
2022/06/15 03:03:41;;;;;;;5.57;3.00;;;15.80;65.30;;;;;;5088036;28;20509;-72
2022/06/15 03:06:27;;;;;;;5.10;3.00;;;15.80;65.20;;;;;;5101160;28;20469;-71
2022/06/15 03:08:59;;;;;;;7.70;3.13;;;15.70;65.30;;;;;;5102941;28;20650;-72
2022/06/15 03:11:40;;;;;;;7.33;3.20;;;15.70;65.30;;;;;;5103622;28;20475;-70
2022/06/15 03:14:16;;;;;;;4.70;2.47;;;15.70;65.30;;;;;;5104258;28;20501;-72
2022/06/15 03:16:48;;;;;;;5.80;3.10;;;15.60;65.30;;;;;;5099341;28;20484;-72
2022/06/15 03:19:21;;;;;;;5.47;3.10;;;15.60;65.30;;;;;;5090292;28;20476;-71
2022/06/15 03:21:56;;;;;;;6.00;2.90;;;15.60;65.40;;;;;;5100955;28;20514;-71
2022/06/15 03:24:25;;;;;;;6.60;2.90;;;15.60;65.40;;;;;;5093361;28;20460;-71
2022/06/15 03:26:54;;;;;;;5.73;3.07;;;15.60;65.40;;;;;;5095917;28;21346;-71
2022/06/15 03:29:24;;;;;;;6.67;3.27;;;15.60;65.40;;;;;;5090255;28;20474;-71
2022/06/15 03:31:57;;;;;;;5.80;3.27;;;15.60;65.40;;;;;;5088738;28;20492;-71
2022/06/15 03:34:30;;;;;;;5.90;3.30;;;15.60;65.40;;;;;;5087014;28;20991;-71
2022/06/15 03:36:58;;;;;;;5.47;2.80;;;15.60;65.50;;;;;;5108748;28;20821;-71
2022/06/15 03:39:26;;;;;;;5.87;3.37;;;15.60;65.50;;;;;;5093839;28;20482;-72
2022/06/15 03:42:08;;;;;;;5.33;2.83;;;15.60;65.60;;;;;;5094297;28;20479;-71
2022/06/15 03:44:36;;;;;;;5.53;2.90;;;15.60;65.50;;;;;;5093068;28;20968;-71
2022/06/15 03:47:07;;;;;;;8.00;3.40;;;15.60;65.40;;;;;;5087464;28;20567;-71
2022/06/15 03:49:39;;;;;;;5.53;3.07;;;15.60;65.50;;;;;;5106185;28;20463;-71
2022/06/15 03:52:08;;;;;;;5.30;2.70;;;15.60;65.50;;;;;;5110215;28;20953;-71
2022/06/15 03:54:37;;;;;;;9.40;2.90;;;15.60;65.50;;;;;;5102162;28;20476;-71
2022/06/15 03:57:07;;;;;;;5.60;2.80;;;15.60;65.50;;;;;;5105974;28;20835;-71
2022/06/15 03:59:36;;;;;;;5.60;3.57;;;15.60;65.60;;;;;;5109717;28;20468;-70
2022/06/15 04:02:27;;;;;;;6.00;2.93;;;15.60;65.50;;;;;;5102973;28;20490;-72
2022/06/15 04:05:00;;;;;;;5.97;3.20;;;15.60;65.70;;;;;;5081942;28;20453;-72
2022/06/15 04:10:14;;;;;;;5.90;3.10;;;15.60;65.70;;;;;;5090836;28;20837;-70
2022/06/15 04:12:44;;;;;;;7.83;3.10;;;15.70;65.80;;;;;;5091800;28;20494;-72
2022/06/15 04:15:16;;;;;;;5.03;2.40;;;15.70;65.90;;;;;;5107571;28;20467;-72
2022/06/15 04:17:51;;;;;;;5.30;2.77;;;15.80;65.90;;;;;;5091574;28;20456;-71
2022/06/15 04:20:33;;;;;;;6.30;2.90;;;15.90;65.80;;;;;;5092416;28;20571;-71
2022/06/15 04:23:22;;;;;;;9.90;2.60;;;16.00;65.80;;;;;;5107451;28;20452;-71
2022/06/15 04:25:54;;;;;;;6.20;2.80;;;16.10;65.90;;;;;;5106580;28;20456;-71
2022/06/15 04:28:36;;;;;;;5.77;2.90;;;16.30;65.90;;;;;;5090287;28;21000;-71
2022/06/15 04:31:13;;;;;;;6.20;2.87;;;16.40;65.90;;;;;;5090388;28;20485;-71
2022/06/15 04:33:41;;;;;;;7.30;2.63;;;16.50;65.90;;;;;;5089463;28;20894;-71
2022/06/15 04:36:14;;;;;;;10.33;3.40;;;16.70;65.80;;;;;;5098309;28;20461;-71
2022/06/15 04:38:47;;;;;;;5.93;2.53;;;16.90;65.80;;;;;;5109580;28;20460;-71
2022/06/15 04:41:15;;;;;;;9.67;2.40;;;17.00;65.70;;;;;;5106455;28;20480;-71
2022/06/15 04:43:43;;;;;;;4.97;2.53;;;17.20;65.70;;;;;;5106339;28;20941;-71
2022/06/15 04:46:16;;;;;;;5.00;2.70;;;17.30;65.60;;;;;;5090506;28;20483;-71
2022/06/15 04:48:46;;;;;;;5.67;2.77;;;17.50;65.50;;;;;;5109019;28;20463;-70
2022/06/15 04:51:20;;;;;;;6.07;3.10;;;17.60;65.60;;;;;;5089003;28;20491;-70
2022/06/15 04:53:53;;;;;;;5.13;2.77;;;17.80;65.60;;;;;;5082641;28;20464;-71
2022/06/15 04:56:22;;;;;;;5.10;2.80;;;18.00;65.50;;;;;;5088847;28;20460;-72
2022/06/15 04:58:50;;;;;;;6.57;3.03;;;18.10;65.50;;;;;;5103264;28;20458;-71
2022/06/15 05:01:20;;;;;;;6.13;3.83;;;18.30;65.40;;;;;;5085138;28;20489;-71
2022/06/15 05:03:48;;;;;;;12.17;7.80;;;18.40;65.30;;;;;;5101252;28;20846;-70
2022/06/15 05:06:33;;;;;;;12.97;7.20;;;18.60;65.00;;;;;;5102514;28;20535;-71
2022/06/15 05:09:03;;;;;;;10.40;6.20;;;18.80;64.80;;;;;;5085857;28;20518;-71
2022/06/15 05:11:32;;;;;;;9.87;5.93;;;19.00;64.60;;;;;;5087253;28;20564;-71
2022/06/15 05:14:01;;;;;;;7.90;4.80;;;19.10;64.60;;;;;;5099299;28;20487;-70
2022/06/15 05:16:33;;;;;;;8.07;4.90;;;19.20;64.40;;;;;;5086492;28;20491;-72
2022/06/15 05:19:02;;;;;;;8.83;3.87;;;19.40;64.40;;;;;;5102633;28;20496;-72
2022/06/15 05:21:38;;;;;;;6.20;3.00;;;19.60;64.30;;;;;;5105037;28;20881;-72
2022/06/15 05:24:09;;;;;;;6.33;3.10;;;19.80;64.10;;;;;;5086372;28;20463;-71
2022/06/15 05:26:48;;;;;;;11.90;3.97;;;19.90;63.80;;;;;;5106537;28;20464;-73
2022/06/15 05:29:17;;;;;;;10.50;3.67;;;20.10;63.60;;;;;;5091907;28;20535;-72
2022/06/15 05:31:48;;;;;;;9.37;2.77;;;20.30;63.40;;;;;;5087040;28;20482;-72
2022/06/15 05:34:18;;;;;;;7.80;3.53;;;20.40;63.20;;;;;;5088766;28;20537;-71
2022/06/15 05:36:48;;;;;;;11.20;4.00;;;20.60;63.70;;;;;;5096606;28;20537;-71
2022/06/15 05:39:16;;;;;;;6.30;2.80;;;20.90;64.40;;;;;;5078355;28;20456;-71
2022/06/15 05:41:45;;;;;;;7.50;3.00;;;21.50;64.20;;;;;;5082750;28;20840;-71
2022/06/15 05:44:15;;;;;;;6.73;2.90;;;22.60;62.50;;;;;;5109183;28;20445;-72
2022/06/15 05:46:45;;;;;;;7.67;2.27;;;23.80;60.10;;;;;;5085223;28;20633;-71
2022/06/15 05:49:26;;;;;;;6.63;2.70;;;25.10;57.90;;;;;;5091300;28;20476;-72
2022/06/15 05:51:56;;;;;;;8.80;3.17;;;26.10;55.70;;;;;;5090651;28;20999;-72
2022/06/15 05:54:26;;;;;;;4.83;2.40;;;26.90;54.80;;;;;;5101510;28;20475;-72
2022/06/15 05:56:56;;;;;;;13.67;2.97;;;27.80;53.70;;;;;;5108282;28;20489;-72
2022/06/15 05:59:24;;;;;;;11.33;4.47;;;28.40;52.70;;;;;;5084900;28;20843;-73
2022/06/15 06:01:52;;;;;;;6.13;3.23;;;28.80;51.70;;;;;;5097696;28;20999;-73
2022/06/15 06:04:21;;;;;;;10.30;3.20;;;29.10;50.90;;;;;;5103878;28;20462;-73
2022/06/15 06:06:50;;;;;;;6.37;3.10;;;29.30;50.30;;;;;;5108206;28;20995;-73
2022/06/15 06:09:19;;;;;;;7.60;2.97;;;29.30;50.10;;;;;;5107313;22;20557;-72
2022/06/15 06:11:47;;;;;;;6.93;3.40;;;28.90;49.60;;;;;;5086037;28;20477;-73
2022/06/15 06:14:15;;;;;;;6.17;2.80;;;28.20;50.10;;;;;;5089538;28;20813;-73
2022/06/15 06:16:43;;;;;;;6.30;3.17;;;27.50;50.60;;;;;;5088073;28;20478;-74
2022/06/15 06:19:11;;;;;;;7.13;3.10;;;26.70;50.70;;;;;;5079929;28;20450;-73
2022/06/15 06:21:39;;;;;;;8.70;3.67;;;26.10;51.00;;;;;;5084433;28;20498;-75
2022/06/15 06:24:08;;;;;;;7.70;4.57;;;25.50;52.10;;;;;;5085773;28;20449;-73
2022/06/15 06:26:38;;;;;;;9.00;4.17;;;25.10;52.40;;;;;;5083870;28;20449;-73
2022/06/15 06:29:07;;;;;;;11.20;6.37;;;24.70;53.00;;;;;;5089109;28;20456;-73
2022/06/15 06:31:35;;;;;;;9.30;5.17;;;24.30;53.40;;;;;;5087772;28;20471;-73
2022/06/15 06:34:03;;;;;;;6.80;3.87;;;23.90;53.60;;;;;;5089089;28;21147;-72
2022/06/15 06:36:34;;;;;;;9.90;4.57;;;23.60;54.00;;;;;;5088249;28;21025;-72
2022/06/15 06:39:07;;;;;;;11.80;5.53;;;23.20;54.60;;;;;;5084366;28;20452;-72
2022/06/15 06:41:35;;;;;;;7.40;4.10;;;23.00;54.90;;;;;;5088230;28;21007;-72
2022/06/15 06:44:05;;;;;;;7.10;2.73;;;22.70;55.20;;;;;;5089142;28;20450;-72
2022/06/15 06:46:34;;;;;;;10.37;4.13;;;22.40;55.70;;;;;;5088215;28;20472;-73
2022/06/15 06:49:04;;;;;;;8.37;3.37;;;22.20;56.20;;;;;;5082538;28;20504;-73
2022/06/15 06:51:34;;;;;;;6.43;3.20;;;22.10;56.40;;;;;;5085527;28;20474;-72
2022/06/15 06:54:03;;;;;;;6.60;3.67;;;21.90;57.20;;;;;;5082128;28;20500;-72
2022/06/15 06:56:31;;;;;;;7.63;3.40;;;21.80;57.10;;;;;;5090984;28;20453;-72
2022/06/15 06:58:59;;;;;;;8.63;3.50;;;21.70;57.40;;;;;;5085479;28;20537;-72
2022/06/15 07:01:28;;;;;;;8.20;3.80;;;21.70;57.70;;;;;;5073494;28;20464;-72
2022/06/15 07:03:56;;;;;;;5.90;3.63;;;21.60;58.00;;;;;;5092479;28;20528;-72
2022/06/15 07:06:24;;;;;;;7.60;3.90;;;21.60;58.40;;;;;;5089535;28;20457;-72
2022/06/15 07:08:52;;;;;;;9.27;4.23;;;21.60;58.60;;;;;;5092101;28;20468;-72
2022/06/15 07:11:20;;;;;;;10.70;5.10;;;21.60;58.70;;;;;;5092482;28;20665;-72
2022/06/15 07:13:48;;;;;;;8.73;4.33;;;21.70;58.90;;;;;;5091838;28;20455;-73
2022/06/15 07:16:18;;;;;;;6.77;3.70;;;21.70;59.10;;;;;;5092230;28;21038;-73
2022/06/15 07:18:48;;;;;;;10.30;4.03;;;21.70;59.30;;;;;;5091877;28;20489;-72
2022/06/15 07:21:18;;;;;;;11.00;4.40;;;21.70;59.80;;;;;;5092310;28;20478;-73
2022/06/15 07:23:49;;;;;;;11.70;3.53;;;21.70;59.70;;;;;;5091939;28;20469;-73
2022/06/15 07:26:21;;;;;;;8.20;3.93;;;21.80;59.80;;;;;;5092077;28;20566;-72
2022/06/15 07:28:50;;;;;;;8.17;3.97;;;21.90;60.00;;;;;;5091857;28;20448;-72
2022/06/15 07:31:24;;;;;;;9.17;4.00;;;21.90;60.20;;;;;;5091423;28;20476;-72
2022/06/15 07:33:54;;;;;;;7.00;4.37;;;22.00;60.20;;;;;;5090915;28;20470;-72
2022/06/15 07:36:23;;;;;;;10.20;5.20;;;22.10;60.40;;;;;;5092409;28;20884;-72
2022/06/15 07:38:52;;;;;;;12.07;4.63;;;22.10;60.40;;;;;;5091632;28;20449;-72
2022/06/15 07:41:21;;;;;;;10.27;4.53;;;22.20;60.30;;;;;;5091934;28;20483;-72
2022/06/15 07:43:49;;;;;;;10.83;4.50;;;22.30;60.20;;;;;;5091494;28;20448;-72
2022/06/15 07:46:18;;;;;;;7.90;4.17;;;22.40;60.20;;;;;;5091532;28;21093;-72
2022/06/15 07:51:44;;;;;;;8.90;4.40;;;22.60;59.80;;;;;;5089645;28;20913;-72
2022/06/15 07:54:15;;;;;;;10.73;4.60;;;22.70;59.70;;;;;;5073674;28;20456;-72
2022/06/15 07:56:45;;;;;;;9.17;4.93;;;22.70;59.60;;;;;;5091420;28;20448;-72
2022/06/15 07:59:14;;;;;;;10.27;4.57;;;22.80;59.40;;;;;;5091841;28;20457;-72
2022/06/15 08:01:42;;;;;;;10.30;5.20;;;22.90;59.50;;;;;;5089483;28;20481;-72
2022/06/15 08:04:12;;;;;;;10.60;4.80;;;22.90;59.50;;;;;;5091819;28;20454;-72
2022/06/15 08:06:43;;;;;;;10.63;4.60;;;23.00;59.40;;;;;;5090570;28;20456;-72
2022/06/15 08:09:13;;;;;;;9.10;4.53;;;23.00;59.30;;;;;;5091366;28;20939;-71
2022/06/15 08:12:11;;;;;;;7.07;4.20;;;23.10;59.20;;;;;;5091159;28;20887;-73
2022/06/15 08:14:35;;;;;;;11.27;4.70;;;23.20;59.10;;;;;;5091279;28;20452;-73
2022/06/15 08:17:05;;;;;;;8.70;4.70;;;23.20;59.00;;;;;;5083702;28;21215;-72
2022/06/15 08:19:37;;;;;;;10.83;4.13;;;23.20;58.90;;;;;;5091436;28;20457;-73
2022/06/15 08:22:07;;;;;;;10.43;4.40;;;23.20;58.80;;;;;;5084525;28;20489;-71
2022/06/15 08:24:37;;;;;;;8.57;4.63;;;23.20;58.60;;;;;;5090930;28;20573;-74
2022/06/15 08:27:06;;;;;;;26.13;5.83;;;23.30;58.50;;;;;;5072865;28;20458;-73
2022/06/15 08:29:34;;;;;;;9.77;4.50;;;23.30;58.50;;;;;;5091302;28;20854;-73
2022/06/15 08:32:03;;;;;;;8.80;4.80;;;23.30;58.50;;;;;;5088284;28;20988;-73
2022/06/15 08:34:33;;;;;;;15.13;5.73;;;23.40;58.50;;;;;;5088196;28;20841;-73
2022/06/15 08:37:02;;;;;;;10.63;4.80;;;23.40;58.40;;;;;;5091051;28;20944;-72
2022/06/15 08:39:30;;;;;;;9.43;4.60;;;23.40;58.30;;;;;;5090846;28;20543;-72
2022/06/15 08:42:05;;;;;;;8.10;4.60;;;23.40;58.20;;;;;;5090577;28;21006;-73
2022/06/15 08:44:43;;;;;;;8.30;4.43;;;23.50;57.80;;;;;;5090585;28;20447;-73
2022/06/15 08:47:19;;;;;;;7.53;4.80;;;23.50;57.90;;;;;;5077333;28;20483;-73
2022/06/15 08:49:56;;;;;;;9.30;5.30;;;23.50;58.00;;;;;;5089694;28;20462;-72
2022/06/15 08:52:31;;;;;;;8.63;4.93;;;23.60;58.00;;;;;;5090773;28;20450;-72
2022/06/15 08:55:04;;;;;;;7.10;4.30;;;23.60;58.10;;;;;;5083330;28;20451;-73
2022/06/15 08:57:41;;;;;;;7.10;4.10;;;23.70;58.00;;;;;;5090312;28;20467;-73
2022/06/15 09:00:16;;;;;;;9.23;4.77;;;23.70;58.00;;;;;;5089835;28;20481;-73
2022/06/15 09:03:05;;;;;;;8.63;4.43;;;23.80;58.00;;;;;;5090032;28;20511;-72
2022/06/15 09:05:40;;;;;;;7.00;4.50;;;23.80;57.90;;;;;;5090386;28;20442;-72
2022/06/15 09:08:37;;;;;;;9.67;5.30;;;23.90;57.90;;;;;;5069948;28;20500;-72
2022/06/15 09:11:17;;;;;;;11.17;4.63;;;23.90;57.80;;;;;;5065563;28;20998;-73
2022/06/15 09:14:00;;;;;;;8.40;4.80;;;24.00;57.70;;;;;;5089349;28;20449;-73
2022/06/15 09:16:37;;;;;;;10.90;4.37;;;24.00;57.70;;;;;;5071739;28;20462;-73
2022/06/15 09:19:09;;;;;;;9.93;4.67;;;24.00;57.50;;;;;;5064997;28;20456;-73
2022/06/15 09:21:41;;;;;;;8.80;4.80;;;24.10;57.60;;;;;;5089508;28;20482;-73
2022/06/15 09:24:16;;;;;;;8.90;4.53;;;24.20;57.10;;;;;;5090309;28;20447;-72
2022/06/15 09:26:49;;;;;;;8.87;4.53;;;24.30;56.90;;;;;;5089617;28;20469;-74
2022/06/15 09:29:22;;;;;;;9.17;5.37;;;24.30;56.90;;;;;;5090204;28;20782;-73
2022/06/15 09:31:57;;;;;;;10.30;4.70;;;24.30;56.60;;;;;;5089080;28;20475;-73
2022/06/15 09:34:34;;;;;;;11.23;4.90;;;24.30;56.60;;;;;;5090079;28;20511;-72
2022/06/15 09:37:06;;;;;;;14.27;5.47;;;24.40;56.50;;;;;;5083069;28;20956;-72
2022/06/15 09:39:36;;;;;;;11.77;4.93;;;24.50;56.50;;;;;;5069180;28;20491;-73
2022/06/15 09:42:14;;;;;;;9.47;4.47;;;24.50;56.60;;;;;;5089356;28;20498;-73
2022/06/15 09:44:51;;;;;;;9.33;4.97;;;24.60;56.20;;;;;;5088714;28;20797;-73
2022/06/15 09:47:35;;;;;;;11.90;4.60;;;24.60;55.90;;;;;;5090054;28;20463;-73
2022/06/15 09:50:14;;;;;;;8.93;4.17;;;24.70;55.40;;;;;;5082772;28;20447;-73
2022/06/15 09:52:55;;;;;;;7.63;4.13;;;24.70;55.40;;;;;;5089273;28;20509;-73
2022/06/15 09:55:33;;;;;;;7.67;4.63;;;24.80;55.40;;;;;;5071622;28;20463;-73
2022/06/15 09:58:25;;;;;;;10.97;5.40;;;24.80;55.10;;;;;;5085346;28;20456;-73
2022/06/15 10:00:54;;;;;;;9.40;4.70;;;24.80;55.40;;;;;;5088451;28;20939;-73
2022/06/15 10:03:26;;;;;;;10.43;5.20;;;24.90;55.40;;;;;;5089392;28;20488;-73
2022/06/15 10:05:57;;;;;;;7.57;4.00;;;24.90;55.20;;;;;;5089052;28;20550;-72
2022/06/15 10:08:25;;;;;;;9.57;5.17;;;24.90;55.20;;;;;;5089363;28;20471;-72
2022/06/15 10:10:57;;;;;;;10.57;4.57;;;25.00;55.10;;;;;;5089097;28;20486;-72
2022/06/15 10:13:32;;;;;;;9.07;4.50;;;25.00;55.10;;;;;;5089490;28;20861;-71
2022/06/15 10:16:03;;;;;;;11.67;4.70;;;25.00;55.20;;;;;;5081675;28;20833;-73
2022/06/15 10:18:35;;;;;;;8.80;4.17;;;25.10;55.00;;;;;;5089317;28;21277;-73
2022/06/15 10:21:18;;;;;;;9.20;5.00;;;25.10;54.90;;;;;;5082651;28;20479;-74
2022/06/15 10:23:54;;;;;;;7.63;4.40;;;25.10;54.70;;;;;;5089102;28;20479;-73
2022/06/15 10:26:45;;;;;;;9.47;4.07;;;25.20;54.60;;;;;;5089448;28;20492;-73
2022/06/15 10:29:27;;;;;;;9.57;4.30;;;25.20;54.50;;;;;;5085741;28;20466;-72
2022/06/15 10:32:03;;;;;;;12.97;3.90;;;25.20;54.40;;;;;;5082494;28;20473;-73
2022/06/15 10:34:35;;;;;;;5.97;4.07;;;25.20;54.10;;;;;;5086959;28;20455;-72
2022/06/15 10:37:07;;;;;;;12.27;4.17;;;25.20;54.10;;;;;;5082759;28;20955;-72
2022/06/15 10:39:40;;;;;;;9.80;4.90;;;25.20;54.10;;;;;;5087047;28;20496;-73
2022/06/15 10:42:19;;;;;;;8.47;4.87;;;25.30;54.00;;;;;;5088744;28;20485;-73
2022/06/15 10:44:54;;;;;;;10.43;4.43;;;25.30;53.70;;;;;;5088722;28;20453;-73
2022/06/15 10:47:25;;;;;;;7.60;4.30;;;25.30;53.90;;;;;;5084452;28;20555;-73
2022/06/15 10:49:59;;;;;;;9.90;4.60;;;25.40;53.80;;;;;;5088092;28;20460;-72
2022/06/15 10:52:37;;;;;;;8.07;4.30;;;25.50;53.80;;;;;;5088784;28;20501;-73
2022/06/15 11:04:12;;;;;;;7.50;4.10;;;25.50;53.40;;;;;;5088904;28;20481;-73
2022/06/15 11:06:44;;;;;;;10.30;4.10;;;25.60;53.40;;;;;;5088590;28;20454;-72
2022/06/15 11:09:25;;;;;;;8.73;4.13;;;25.60;53.20;;;;;;5088764;28;20467;-72
2022/06/15 11:11:55;;;;;;;6.80;3.90;;;25.70;53.10;;;;;;5087897;28;20464;-72
2022/06/15 11:14:28;;;;;;;7.47;4.63;;;25.70;53.00;;;;;;5090173;28;20457;-73
2022/06/15 11:20:07;;;;;;;7.50;3.97;;;25.80;52.80;;;;;;5081928;28;20966;-72
2022/06/15 11:22:35;;;;;;;7.40;3.77;;;25.90;52.60;;;;;;5088081;28;20995;-72
2022/06/15 11:25:10;;;;;;;7.33;4.13;;;25.90;52.50;;;;;;5088292;28;20962;-72
2022/06/15 11:27:42;;;;;;;9.87;3.40;;;25.90;52.40;;;;;;5085295;28;20456;-73
2022/06/15 11:30:23;;;;;;;8.43;3.03;;;26.00;52.10;;;;;;5087984;28;20477;-75
2022/06/15 11:32:58;;;;;;;10.47;4.23;;;26.00;51.80;;;;;;5087685;28;20446;-74
2022/06/15 11:35:35;;;;;;;6.40;3.70;;;26.00;51.90;;;;;;5072133;28;20986;-73
2022/06/15 11:38:13;;;;;;;9.47;3.60;;;26.10;51.70;;;;;;5086946;28;20452;-75
2022/06/15 11:40:44;;;;;;;8.80;3.50;;;26.10;51.60;;;;;;5086187;28;20477;-75
2022/06/15 11:43:17;;;;;;;7.13;3.30;;;26.20;51.50;;;;;;5091705;28;20849;-73
2022/06/15 11:46:05;;;;;;;9.77;4.30;;;26.30;51.10;;;;;;5090826;28;20839;-75
2022/06/15 11:48:45;;;;;;;6.00;3.27;;;26.30;50.90;;;;;;5091675;28;20955;-73
2022/06/15 11:51:27;;;;;;;5.90;2.97;;;26.40;50.60;;;;;;5091924;28;20481;-74
2022/06/15 11:54:09;;;;;;;7.50;2.80;;;26.30;50.50;;;;;;5090881;28;20451;-73
2022/06/15 11:56:45;;;;;;;6.50;2.83;;;26.40;50.40;;;;;;5090917;28;20450;-75
2022/06/15 11:59:26;;;;;;;8.10;3.17;;;26.50;50.40;;;;;;5091126;28;20546;-75
2022/06/15 12:02:13;;;;;;;8.53;3.07;;;26.50;50.10;;;;;;5084074;28;20471;-74
2022/06/15 12:05:17;;;;;;;8.30;3.00;;;26.60;49.90;;;;;;5090292;28;20514;-74
2022/06/15 12:07:59;;;;;;;6.40;3.30;;;26.60;49.30;;;;;;5091048;28;20459;-73
2022/06/15 12:10:40;;;;;;;6.10;3.20;;;26.60;49.40;;;;;;5087770;28;20562;-72
2022/06/15 12:13:19;;;;;;;5.90;2.87;;;26.70;48.90;;;;;;5088411;28;20461;-72
2022/06/15 12:15:53;;;;;;;11.40;3.20;;;26.80;48.90;;;;;;5072306;28;20559;-71
2022/06/15 12:18:44;;;;;;;6.13;3.00;;;26.80;48.40;;;;;;5091221;28;20451;-73
2022/06/15 12:21:21;;;;;;;6.20;3.33;;;26.80;48.60;;;;;;5085751;28;20478;-73
2022/06/15 12:23:59;;;;;;;8.50;3.30;;;26.70;48.50;;;;;;5091331;28;21060;-74
2022/06/15 12:26:44;;;;;;;5.83;2.47;;;26.70;48.50;;;;;;5090837;28;20469;-72
2022/06/15 12:29:23;;;;;;;5.90;2.97;;;26.60;48.40;;;;;;5090367;28;20600;-74
2022/06/15 12:32:07;;;;;;;9.47;3.27;;;26.60;48.20;;;;;;5090046;28;20983;-72
2022/06/15 12:34:44;;;;;;;6.20;2.97;;;26.80;48.40;;;;;;5089501;28;20988;-74
2022/06/15 12:37:23;;;;;;;6.90;2.80;;;26.90;48.20;;;;;;5089290;28;20524;-71
2022/06/15 12:40:10;;;;;;;4.80;2.70;;;27.00;48.00;;;;;;5090129;28;20961;-73
2022/06/15 12:42:39;;;;;;;5.77;2.87;;;27.00;47.90;;;;;;5088677;28;20513;-71
2022/06/15 12:45:15;;;;;;;6.00;3.10;;;27.00;47.70;;;;;;5090135;28;20477;-73
2022/06/15 12:47:50;;;;;;;6.13;2.73;;;27.10;47.50;;;;;;5089492;28;20483;-73
2022/06/15 12:50:33;;;;;;;6.43;2.73;;;27.10;47.10;;;;;;5088784;28;20471;-72
2022/06/15 12:53:08;;;;;;;6.77;2.53;;;27.10;47.40;;;;;;5088863;28;20450;-74
2022/06/15 12:55:41;;;;;;;5.53;2.97;;;27.10;47.30;;;;;;5089949;28;20497;-72
2022/06/15 12:58:17;;;;;;;9.80;2.70;;;27.20;47.30;;;;;;5090923;28;20460;-72
2022/06/15 13:00:49;;;;;;;5.10;2.40;;;27.20;47.60;;;;;;5089360;28;20478;-73
2022/06/15 13:03:30;;;;;;;16.47;3.20;;;27.20;47.60;;;;;;5066916;28;20526;-74
2022/06/15 13:06:22;;;;;;;7.43;2.80;;;27.20;47.50;;;;;;5071807;28;20486;-73
2022/06/15 13:09:02;;;;;;;8.20;2.83;;;27.30;47.70;;;;;;5090071;28;20476;-73
2022/06/15 13:11:30;;;;;;;6.57;2.43;;;27.40;47.60;;;;;;5088827;28;20475;-73
2022/06/15 13:14:12;;;;;;;5.13;2.50;;;27.40;47.30;;;;;;5078488;28;20455;-73
2022/06/15 13:16:44;;;;;;;5.37;2.30;;;27.50;47.40;;;;;;5087829;28;20602;-71
2022/06/15 13:19:29;;;;;;;10.80;3.20;;;27.50;47.30;;;;;;5090466;28;20451;-74
2022/06/15 13:22:08;;;;;;;5.23;2.80;;;27.60;47.20;;;;;;5082865;28;20487;-73
2022/06/15 13:24:57;;;;;;;9.40;2.93;;;27.60;47.00;;;;;;5087392;28;21010;-73
2022/06/15 13:27:30;;;;;;;6.50;2.93;;;27.60;46.60;;;;;;5088070;28;20463;-73
2022/06/15 13:30:21;;;;;;;7.50;4.40;;;27.60;46.60;;;;;;5089706;28;20476;-73
2022/06/15 13:32:58;;;;;;;5.47;3.03;;;27.50;46.40;;;;;;5088994;28;20452;-74
2022/06/15 13:35:31;;;;;;;6.07;2.30;;;27.50;46.50;;;;;;5090233;28;20484;-74
2022/06/15 13:38:14;;;;;;;6.30;2.93;;;27.60;46.40;;;;;;5082708;28;20457;-75